sensor_id;sensor_type;location;lat;lon;timestamp;P1;durP1;ratioP1;P2;durP2;ratioP2
25637;SDS011;13496;51.040;13.680;2023-02-13T00:04:14;2.50;;;2.30;;
25637;SDS011;13496;51.040;13.680;2023-02-13T00:09:16;2.60;;;2.40;;
25637;SDS011;13496;51.040;13.680;2023-02-13T00:14:18;2.60;;;2.40;;
25637;SDS011;13496;51.040;13.680;2023-02-13T00:19:19;2.60;;;2.40;;
25637;SDS011;13496;51.040;13.680;2023-02-13T00:24:21;2.50;;;2.30;;
25637;SDS011;13496;51.040;13.680;2023-02-13T00:29:23;2.47;;;2.27;;
25637;SDS011;13496;51.040;13.680;2023-02-13T00:34:26;2.10;;;2.00;;
25637;SDS011;13496;51.040;13.680;2023-02-13T00:39:29;2.50;;;2.30;;
25637;SDS011;13496;51.040;13.680;2023-02-13T00:44:30;2.20;;;2.10;;
25637;SDS011;13496;51.040;13.680;2023-02-13T00:49:32;2.97;;;2.70;;
25637;SDS011;13496;51.040;13.680;2023-02-13T00:54:36;2.80;;;2.60;;
25637;SDS011;13496;51.040;13.680;2023-02-13T00:59:37;2.50;;;2.30;;
25637;SDS011;13496;51.040;13.680;2023-02-13T01:04:39;2.77;;;2.57;;
25637;SDS011;13496;51.040;13.680;2023-02-13T01:09:41;2.57;;;2.37;;
25637;SDS011;13496;51.040;13.680;2023-02-13T01:14:42;2.50;;;2.30;;
25637;SDS011;13496;51.040;13.680;2023-02-13T01:19:45;2.60;;;2.40;;
25637;SDS011;13496;51.040;13.680;2023-02-13T01:24:46;2.70;;;2.40;;
25637;SDS011;13496;51.040;13.680;2023-02-13T01:29:48;2.30;;;2.20;;
25637;SDS011;13496;51.040;13.680;2023-02-13T01:34:50;2.50;;;2.30;;
25637;SDS011;13496;51.040;13.680;2023-02-13T01:39:51;2.70;;;2.50;;
25637;SDS011;13496;51.040;13.680;2023-02-13T01:45:05;2.70;;;2.50;;
25637;SDS011;13496;51.040;13.680;2023-02-13T01:55:43;3.17;;;2.90;;
25637;SDS011;13496;51.040;13.680;2023-02-13T02:00:51;2.70;;;2.50;;
25637;SDS011;13496;51.040;13.680;2023-02-13T02:05:53;2.70;;;2.50;;
25637;SDS011;13496;51.040;13.680;2023-02-13T02:11:00;2.70;;;2.50;;
25637;SDS011;13496;51.040;13.680;2023-02-13T02:16:08;3.00;;;2.80;;
25637;SDS011;13496;51.040;13.680;2023-02-13T02:21:19;2.77;;;2.57;;
25637;SDS011;13496;51.040;13.680;2023-02-13T02:32:37;2.83;;;2.63;;
25637;SDS011;13496;51.040;13.680;2023-02-13T02:37:33;2.47;;;2.27;;
25637;SDS011;13496;51.040;13.680;2023-02-13T02:43:05;2.67;;;2.47;;
25637;SDS011;13496;51.040;13.680;2023-02-13T02:48:27;3.00;;;2.80;;
25637;SDS011;13496;51.040;13.680;2023-02-13T02:54:02;2.60;;;2.40;;
25637;SDS011;13496;51.040;13.680;2023-02-13T02:59:32;3.03;;;2.83;;
25637;SDS011;13496;51.040;13.680;2023-02-13T03:04:55;2.60;;;2.40;;
25637;SDS011;13496;51.040;13.680;2023-02-13T03:10:24;2.97;;;2.77;;
25637;SDS011;13496;51.040;13.680;2023-02-13T03:15:53;3.03;;;2.73;;
25637;SDS011;13496;51.040;13.680;2023-02-13T03:26:53;2.70;;;2.50;;
25637;SDS011;13496;51.040;13.680;2023-02-13T03:32:11;2.70;;;2.50;;
25637;SDS011;13496;51.040;13.680;2023-02-13T03:37:34;2.67;;;2.47;;
25637;SDS011;13496;51.040;13.680;2023-02-13T03:42:59;2.97;;;2.67;;
25637;SDS011;13496;51.040;13.680;2023-02-13T03:48:08;3.10;;;2.80;;
25637;SDS011;13496;51.040;13.680;2023-02-13T03:53:32;3.30;;;3.00;;
25637;SDS011;13496;51.040;13.680;2023-02-13T03:58:37;2.80;;;2.60;;
25637;SDS011;13496;51.040;13.680;2023-02-13T04:04:12;2.87;;;2.67;;
25637;SDS011;13496;51.040;13.680;2023-02-13T04:09:23;2.90;;;2.70;;
25637;SDS011;13496;51.040;13.680;2023-02-13T04:14:33;2.93;;;2.70;;
25637;SDS011;13496;51.040;13.680;2023-02-13T04:19:40;2.80;;;2.50;;
25637;SDS011;13496;51.040;13.680;2023-02-13T04:24:41;3.00;;;2.73;;
25637;SDS011;13496;51.040;13.680;2023-02-13T04:29:43;2.73;;;2.53;;
25637;SDS011;13496;51.040;13.680;2023-02-13T04:34:45;2.57;;;2.37;;
25637;SDS011;13496;51.040;13.680;2023-02-13T04:39:46;3.23;;;2.93;;
25637;SDS011;13496;51.040;13.680;2023-02-13T04:44:48;3.00;;;2.80;;
25637;SDS011;13496;51.040;13.680;2023-02-13T04:49:49;3.57;;;3.27;;
25637;SDS011;13496;51.040;13.680;2023-02-13T04:54:51;2.90;;;2.70;;
25637;SDS011;13496;51.040;13.680;2023-02-13T04:59:53;2.67;;;2.47;;
25637;SDS011;13496;51.040;13.680;2023-02-13T05:04:54;2.57;;;2.37;;
25637;SDS011;13496;51.040;13.680;2023-02-13T05:09:56;2.80;;;2.60;;
25637;SDS011;13496;51.040;13.680;2023-02-13T05:14:58;2.50;;;2.30;;
25637;SDS011;13496;51.040;13.680;2023-02-13T05:19:59;2.70;;;2.50;;
25637;SDS011;13496;51.040;13.680;2023-02-13T05:25:01;2.87;;;2.67;;
25637;SDS011;13496;51.040;13.680;2023-02-13T05:30:03;2.57;;;2.37;;
25637;SDS011;13496;51.040;13.680;2023-02-13T05:35:06;2.67;;;2.47;;
25637;SDS011;13496;51.040;13.680;2023-02-13T05:40:08;4.13;;;2.47;;
25637;SDS011;13496;51.040;13.680;2023-02-13T05:45:11;2.70;;;2.50;;
25637;SDS011;13496;51.040;13.680;2023-02-13T05:50:12;2.60;;;2.40;;
25637;SDS011;13496;51.040;13.680;2023-02-13T05:55:14;2.40;;;2.20;;
25637;SDS011;13496;51.040;13.680;2023-02-13T06:00:16;2.80;;;2.60;;
25637;SDS011;13496;51.040;13.680;2023-02-13T06:05:18;3.00;;;2.77;;
25637;SDS011;13496;51.040;13.680;2023-02-13T06:10:20;2.90;;;2.70;;
25637;SDS011;13496;51.040;13.680;2023-02-13T06:15:21;2.90;;;2.53;;
25637;SDS011;13496;51.040;13.680;2023-02-13T06:20:23;3.20;;;2.70;;
25637;SDS011;13496;51.040;13.680;2023-02-13T06:25:24;2.23;;;2.13;;
25637;SDS011;13496;51.040;13.680;2023-02-13T06:30:26;2.93;;;2.73;;
25637;SDS011;13496;51.040;13.680;2023-02-13T06:35:28;2.63;;;2.07;;
25637;SDS011;13496;51.040;13.680;2023-02-13T06:40:29;2.53;;;2.33;;
25637;SDS011;13496;51.040;13.680;2023-02-13T06:45:31;2.50;;;2.20;;
25637;SDS011;13496;51.040;13.680;2023-02-13T06:50:33;2.63;;;2.43;;
25637;SDS011;13496;51.040;13.680;2023-02-13T06:55:35;2.40;;;2.20;;
25637;SDS011;13496;51.040;13.680;2023-02-13T07:00:39;2.40;;;2.20;;
25637;SDS011;13496;51.040;13.680;2023-02-13T07:05:41;2.60;;;2.40;;
25637;SDS011;13496;51.040;13.680;2023-02-13T07:10:44;2.33;;;2.13;;
25637;SDS011;13496;51.040;13.680;2023-02-13T07:15:45;2.37;;;2.17;;
25637;SDS011;13496;51.040;13.680;2023-02-13T07:20:47;2.50;;;2.30;;
25637;SDS011;13496;51.040;13.680;2023-02-13T07:25:49;2.17;;;2.07;;
25637;SDS011;13496;51.040;13.680;2023-02-13T07:30:50;2.47;;;2.27;;
25637;SDS011;13496;51.040;13.680;2023-02-13T07:35:52;2.63;;;2.43;;
25637;SDS011;13496;51.040;13.680;2023-02-13T07:40:54;2.53;;;2.33;;
25637;SDS011;13496;51.040;13.680;2023-02-13T07:45:59;2.80;;;2.60;;
25637;SDS011;13496;51.040;13.680;2023-02-13T07:51:03;2.87;;;2.67;;
25637;SDS011;13496;51.040;13.680;2023-02-13T07:56:05;2.40;;;2.20;;
25637;SDS011;13496;51.040;13.680;2023-02-13T08:01:09;4.13;;;2.63;;
25637;SDS011;13496;51.040;13.680;2023-02-13T08:06:13;2.53;;;2.33;;
25637;SDS011;13496;51.040;13.680;2023-02-13T08:11:22;3.00;;;2.60;;
25637;SDS011;13496;51.040;13.680;2023-02-13T08:16:47;3.23;;;2.93;;
25637;SDS011;13496;51.040;13.680;2023-02-13T08:21:49;2.77;;;2.53;;
25637;SDS011;13496;51.040;13.680;2023-02-13T08:26:50;2.50;;;2.30;;
25637;SDS011;13496;51.040;13.680;2023-02-13T08:31:52;3.00;;;2.70;;
25637;SDS011;13496;51.040;13.680;2023-02-13T08:36:54;4.37;;;3.57;;
25637;SDS011;13496;51.040;13.680;2023-02-13T08:41:55;3.00;;;2.70;;
25637;SDS011;13496;51.040;13.680;2023-02-13T08:46:57;2.93;;;2.63;;
25637;SDS011;13496;51.040;13.680;2023-02-13T08:51:59;2.80;;;2.60;;
25637;SDS011;13496;51.040;13.680;2023-02-13T08:57:02;2.60;;;2.30;;
25637;SDS011;13496;51.040;13.680;2023-02-13T09:02:04;2.67;;;2.47;;
25637;SDS011;13496;51.040;13.680;2023-02-13T09:07:06;2.63;;;2.43;;
25637;SDS011;13496;51.040;13.680;2023-02-13T09:12:07;2.30;;;2.10;;
25637;SDS011;13496;51.040;13.680;2023-02-13T09:17:09;2.90;;;2.60;;
25637;SDS011;13496;51.040;13.680;2023-02-13T09:22:10;2.70;;;2.50;;
25637;SDS011;13496;51.040;13.680;2023-02-13T09:27:12;2.27;;;2.07;;
25637;SDS011;13496;51.040;13.680;2023-02-13T09:32:14;2.60;;;2.40;;
25637;SDS011;13496;51.040;13.680;2023-02-13T09:37:17;2.67;;;2.47;;
25637;SDS011;13496;51.040;13.680;2023-02-13T09:42:27;2.60;;;2.40;;
25637;SDS011;13496;51.040;13.680;2023-02-13T09:47:35;2.20;;;2.00;;
25637;SDS011;13496;51.040;13.680;2023-02-13T09:52:40;2.20;;;2.00;;
25637;SDS011;13496;51.040;13.680;2023-02-13T09:57:46;3.00;;;2.20;;
25637;SDS011;13496;51.040;13.680;2023-02-13T10:03:26;2.60;;;2.40;;
25637;SDS011;13496;51.040;13.680;2023-02-13T10:08:47;2.37;;;2.17;;
25637;SDS011;13496;51.040;13.680;2023-02-13T10:24:32;2.17;;;2.03;;
25637;SDS011;13496;51.040;13.680;2023-02-13T10:29:44;2.23;;;2.10;;
25637;SDS011;13496;51.040;13.680;2023-02-13T10:40:30;3.03;;;2.73;;
25637;SDS011;13496;51.040;13.680;2023-02-13T10:56:22;2.23;;;2.13;;
25637;SDS011;13496;51.040;13.680;2023-02-13T11:01:34;2.40;;;2.20;;
25637;SDS011;13496;51.040;13.680;2023-02-13T11:06:44;2.50;;;2.30;;
25637;SDS011;13496;51.040;13.680;2023-02-13T11:11:51;2.10;;;1.90;;
25637;SDS011;13496;51.040;13.680;2023-02-13T11:22:04;2.23;;;2.03;;
25637;SDS011;13496;51.040;13.680;2023-02-13T11:27:11;2.30;;;2.10;;
25637;SDS011;13496;51.040;13.680;2023-02-13T11:37:26;1.90;;;1.80;;
25637;SDS011;13496;51.040;13.680;2023-02-13T11:42:33;2.40;;;2.20;;
25637;SDS011;13496;51.040;13.680;2023-02-13T11:47:39;2.20;;;2.00;;
25637;SDS011;13496;51.040;13.680;2023-02-13T11:52:42;1.90;;;1.80;;
25637;SDS011;13496;51.040;13.680;2023-02-13T11:57:57;2.10;;;2.00;;
25637;SDS011;13496;51.040;13.680;2023-02-13T12:03:23;2.40;;;2.20;;
25637;SDS011;13496;51.040;13.680;2023-02-13T12:08:26;2.30;;;2.10;;
25637;SDS011;13496;51.040;13.680;2023-02-13T12:13:34;2.20;;;2.10;;
25637;SDS011;13496;51.040;13.680;2023-02-13T12:18:40;2.07;;;1.90;;
25637;SDS011;13496;51.040;13.680;2023-02-13T12:29:13;2.17;;;1.97;;
25637;SDS011;13496;51.040;13.680;2023-02-13T12:39:38;1.93;;;1.83;;
25637;SDS011;13496;51.040;13.680;2023-02-13T12:50:17;1.53;;;1.43;;
25637;SDS011;13496;51.040;13.680;2023-02-13T12:55:27;2.13;;;1.93;;
25637;SDS011;13496;51.040;13.680;2023-02-13T13:00:57;2.10;;;2.00;;
25637;SDS011;13496;51.040;13.680;2023-02-13T13:17:03;2.03;;;1.93;;
25637;SDS011;13496;51.040;13.680;2023-02-13T13:22:17;1.90;;;1.80;;
25637;SDS011;13496;51.040;13.680;2023-02-13T13:27:27;2.10;;;2.00;;
25637;SDS011;13496;51.040;13.680;2023-02-13T13:32:32;2.00;;;1.90;;
25637;SDS011;13496;51.040;13.680;2023-02-13T13:43:18;2.03;;;1.80;;
25637;SDS011;13496;51.040;13.680;2023-02-13T13:48:37;3.70;;;2.50;;
25637;SDS011;13496;51.040;13.680;2023-02-13T13:59:00;2.60;;;2.30;;
25637;SDS011;13496;51.040;13.680;2023-02-13T14:04:03;2.27;;;2.10;;
25637;SDS011;13496;51.040;13.680;2023-02-13T14:09:37;3.33;;;2.43;;
25637;SDS011;13496;51.040;13.680;2023-02-13T14:14:42;2.30;;;2.00;;
25637;SDS011;13496;51.040;13.680;2023-02-13T14:19:45;1.67;;;1.57;;
25637;SDS011;13496;51.040;13.680;2023-02-13T14:24:53;1.90;;;1.80;;
25637;SDS011;13496;51.040;13.680;2023-02-13T14:29:57;1.80;;;1.70;;
25637;SDS011;13496;51.040;13.680;2023-02-13T14:35:17;2.10;;;2.00;;
25637;SDS011;13496;51.040;13.680;2023-02-13T14:45:31;1.90;;;1.80;;
25637;SDS011;13496;51.040;13.680;2023-02-13T14:50:44;1.70;;;1.60;;
25637;SDS011;13496;51.040;13.680;2023-02-13T14:55:53;1.93;;;1.73;;
25637;SDS011;13496;51.040;13.680;2023-02-13T15:01:23;2.03;;;1.60;;
25637;SDS011;13496;51.040;13.680;2023-02-13T15:06:22;1.70;;;1.60;;
25637;SDS011;13496;51.040;13.680;2023-02-13T15:11:31;4.17;;;2.03;;
25637;SDS011;13496;51.040;13.680;2023-02-13T15:16:39;2.30;;;1.77;;
25637;SDS011;13496;51.040;13.680;2023-02-13T15:21:45;1.70;;;1.60;;
25637;SDS011;13496;51.040;13.680;2023-02-13T15:26:55;2.20;;;2.00;;
25637;SDS011;13496;51.040;13.680;2023-02-13T15:32:02;1.80;;;1.70;;
25637;SDS011;13496;51.040;13.680;2023-02-13T15:37:19;1.93;;;1.83;;
25637;SDS011;13496;51.040;13.680;2023-02-13T15:42:22;1.70;;;1.60;;
25637;SDS011;13496;51.040;13.680;2023-02-13T15:47:26;2.17;;;1.90;;
25637;SDS011;13496;51.040;13.680;2023-02-13T15:52:32;2.20;;;2.00;;
25637;SDS011;13496;51.040;13.680;2023-02-13T15:57:36;2.27;;;1.70;;
25637;SDS011;13496;51.040;13.680;2023-02-13T16:02:45;1.53;;;1.43;;
25637;SDS011;13496;51.040;13.680;2023-02-13T16:07:49;1.70;;;1.60;;
25637;SDS011;13496;51.040;13.680;2023-02-13T16:12:58;2.73;;;1.60;;
25637;SDS011;13496;51.040;13.680;2023-02-13T16:18:03;2.00;;;1.90;;
25637;SDS011;13496;51.040;13.680;2023-02-13T16:23:12;1.80;;;1.70;;
25637;SDS011;13496;51.040;13.680;2023-02-13T16:28:21;1.80;;;1.70;;
25637;SDS011;13496;51.040;13.680;2023-02-13T16:43:36;2.10;;;2.00;;
25637;SDS011;13496;51.040;13.680;2023-02-13T16:48:41;1.90;;;1.80;;
25637;SDS011;13496;51.040;13.680;2023-02-13T16:53:45;2.00;;;1.80;;
25637;SDS011;13496;51.040;13.680;2023-02-13T16:58:46;1.70;;;1.60;;
25637;SDS011;13496;51.040;13.680;2023-02-13T17:03:48;2.13;;;1.93;;
25637;SDS011;13496;51.040;13.680;2023-02-13T17:08:51;2.33;;;2.20;;
25637;SDS011;13496;51.040;13.680;2023-02-13T17:13:57;1.90;;;1.80;;
25637;SDS011;13496;51.040;13.680;2023-02-13T17:18:58;2.47;;;2.23;;
25637;SDS011;13496;51.040;13.680;2023-02-13T17:24:00;1.87;;;1.77;;
25637;SDS011;13496;51.040;13.680;2023-02-13T17:29:02;2.50;;;2.07;;
25637;SDS011;13496;51.040;13.680;2023-02-13T17:34:04;2.20;;;2.00;;
25637;SDS011;13496;51.040;13.680;2023-02-13T17:39:06;2.30;;;2.10;;
25637;SDS011;13496;51.040;13.680;2023-02-13T17:44:10;2.00;;;1.90;;
25637;SDS011;13496;51.040;13.680;2023-02-13T17:49:13;2.17;;;2.07;;
25637;SDS011;13496;51.040;13.680;2023-02-13T17:54:15;2.33;;;2.13;;
25637;SDS011;13496;51.040;13.680;2023-02-13T17:59:16;2.13;;;2.00;;
25637;SDS011;13496;51.040;13.680;2023-02-13T18:04:18;2.30;;;2.10;;
25637;SDS011;13496;51.040;13.680;2023-02-13T18:09:20;2.33;;;2.20;;
25637;SDS011;13496;51.040;13.680;2023-02-13T18:14:22;2.13;;;2.00;;
25637;SDS011;13496;51.040;13.680;2023-02-13T18:19:24;2.60;;;2.20;;
25637;SDS011;13496;51.040;13.680;2023-02-13T18:24:29;2.60;;;2.40;;
25637;SDS011;13496;51.040;13.680;2023-02-13T18:29:32;2.50;;;2.30;;
25637;SDS011;13496;51.040;13.680;2023-02-13T18:34:38;2.53;;;2.20;;
25637;SDS011;13496;51.040;13.680;2023-02-13T18:39:39;2.30;;;2.13;;
25637;SDS011;13496;51.040;13.680;2023-02-13T18:44:41;2.63;;;2.43;;
25637;SDS011;13496;51.040;13.680;2023-02-13T18:49:43;2.67;;;2.47;;
25637;SDS011;13496;51.040;13.680;2023-02-13T18:54:47;2.10;;;2.00;;
25637;SDS011;13496;51.040;13.680;2023-02-13T18:59:50;2.33;;;2.20;;
25637;SDS011;13496;51.040;13.680;2023-02-13T19:04:51;2.40;;;2.20;;
25637;SDS011;13496;51.040;13.680;2023-02-13T19:09:53;2.37;;;2.17;;
25637;SDS011;13496;51.040;13.680;2023-02-13T19:14:55;2.60;;;2.40;;
25637;SDS011;13496;51.040;13.680;2023-02-13T19:19:56;2.70;;;2.30;;
25637;SDS011;13496;51.040;13.680;2023-02-13T19:24:58;2.77;;;2.57;;
25637;SDS011;13496;51.040;13.680;2023-02-13T19:30:00;2.47;;;2.27;;
25637;SDS011;13496;51.040;13.680;2023-02-13T19:35:01;2.93;;;2.60;;
25637;SDS011;13496;51.040;13.680;2023-02-13T19:40:03;3.47;;;2.70;;
25637;SDS011;13496;51.040;13.680;2023-02-13T19:45:05;2.77;;;2.57;;
25637;SDS011;13496;51.040;13.680;2023-02-13T19:50:07;2.37;;;2.20;;
25637;SDS011;13496;51.040;13.680;2023-02-13T19:55:10;4.93;;;2.63;;
25637;SDS011;13496;51.040;13.680;2023-02-13T20:00:11;3.13;;;2.50;;
25637;SDS011;13496;51.040;13.680;2023-02-13T20:05:14;2.70;;;2.50;;
25637;SDS011;13496;51.040;13.680;2023-02-13T20:10:15;2.50;;;2.30;;
25637;SDS011;13496;51.040;13.680;2023-02-13T20:15:17;2.97;;;2.33;;
25637;SDS011;13496;51.040;13.680;2023-02-13T20:20:18;3.00;;;2.67;;
25637;SDS011;13496;51.040;13.680;2023-02-13T20:25:20;2.70;;;2.50;;
25637;SDS011;13496;51.040;13.680;2023-02-13T20:30:23;3.13;;;2.93;;
25637;SDS011;13496;51.040;13.680;2023-02-13T20:35:25;2.37;;;2.17;;
25637;SDS011;13496;51.040;13.680;2023-02-13T20:40:27;3.00;;;2.80;;
25637;SDS011;13496;51.040;13.680;2023-02-13T20:45:28;2.57;;;2.37;;
25637;SDS011;13496;51.040;13.680;2023-02-13T20:50:30;2.90;;;2.60;;
25637;SDS011;13496;51.040;13.680;2023-02-13T20:55:32;3.00;;;2.80;;
25637;SDS011;13496;51.040;13.680;2023-02-13T21:00:33;3.23;;;3.03;;
25637;SDS011;13496;51.040;13.680;2023-02-13T21:05:35;3.07;;;2.83;;
25637;SDS011;13496;51.040;13.680;2023-02-13T21:10:37;2.73;;;2.53;;
25637;SDS011;13496;51.040;13.680;2023-02-13T21:15:38;3.27;;;2.73;;
25637;SDS011;13496;51.040;13.680;2023-02-13T21:20:40;2.77;;;2.57;;
25637;SDS011;13496;51.040;13.680;2023-02-13T21:25:42;3.27;;;3.03;;
25637;SDS011;13496;51.040;13.680;2023-02-13T21:30:43;3.20;;;2.90;;
25637;SDS011;13496;51.040;13.680;2023-02-13T21:35:45;3.13;;;2.83;;
25637;SDS011;13496;51.040;13.680;2023-02-13T21:40:47;4.50;;;3.10;;
25637;SDS011;13496;51.040;13.680;2023-02-13T21:45:48;2.87;;;2.67;;
25637;SDS011;13496;51.040;13.680;2023-02-13T21:50:50;2.87;;;2.67;;
25637;SDS011;13496;51.040;13.680;2023-02-13T21:55:51;3.27;;;3.00;;
25637;SDS011;13496;51.040;13.680;2023-02-13T22:00:53;2.83;;;2.63;;
25637;SDS011;13496;51.040;13.680;2023-02-13T22:05:55;3.40;;;3.10;;
25637;SDS011;13496;51.040;13.680;2023-02-13T22:10:57;3.30;;;3.00;;
25637;SDS011;13496;51.040;13.680;2023-02-13T22:16:03;3.20;;;2.90;;
25637;SDS011;13496;51.040;13.680;2023-02-13T22:21:11;3.20;;;2.90;;
25637;SDS011;13496;51.040;13.680;2023-02-13T22:26:19;3.70;;;3.40;;
25637;SDS011;13496;51.040;13.680;2023-02-13T22:31:22;3.20;;;2.90;;
25637;SDS011;13496;51.040;13.680;2023-02-13T22:36:24;3.23;;;2.83;;
25637;SDS011;13496;51.040;13.680;2023-02-13T22:41:26;2.90;;;2.70;;
25637;SDS011;13496;51.040;13.680;2023-02-13T22:46:28;3.13;;;2.83;;
25637;SDS011;13496;51.040;13.680;2023-02-13T22:51:32;3.50;;;3.20;;
25637;SDS011;13496;51.040;13.680;2023-02-13T22:56:35;3.30;;;3.00;;
25637;SDS011;13496;51.040;13.680;2023-02-13T23:01:37;3.17;;;2.90;;
25637;SDS011;13496;51.040;13.680;2023-02-13T23:06:40;3.20;;;3.00;;
25637;SDS011;13496;51.040;13.680;2023-02-13T23:11:41;3.30;;;3.00;;
25637;SDS011;13496;51.040;13.680;2023-02-13T23:17:01;3.40;;;3.10;;
25637;SDS011;13496;51.040;13.680;2023-02-13T23:22:21;3.47;;;3.17;;
25637;SDS011;13496;51.040;13.680;2023-02-13T23:27:23;3.50;;;3.20;;
25637;SDS011;13496;51.040;13.680;2023-02-13T23:32:25;3.43;;;3.13;;
25637;SDS011;13496;51.040;13.680;2023-02-13T23:37:27;3.00;;;2.80;;
25637;SDS011;13496;51.040;13.680;2023-02-13T23:42:29;3.30;;;3.00;;
25637;SDS011;13496;51.040;13.680;2023-02-13T23:47:31;3.27;;;3.03;;
25637;SDS011;13496;51.040;13.680;2023-02-13T23:52:32;3.33;;;3.03;;
25637;SDS011;13496;51.040;13.680;2023-02-13T23:57:34;3.27;;;2.97;;
